F/V Eema 2 — FL9603 — position and weather

sailwx.info

Track history (hours):
 
Tides and Currents Weather Stations Pressure Air Temp Water Temp Dewpoint Dewpoint Depression Visibility Wind Speed Wind Dir Waves Ship Positions

F/V Eema 2

Last reported at 2014-Sep-01 07:33 UTC. Time now 2014-Sep-02 21:43 UTC.
Position N 46°03' W 002°43'.

Length 10 m.

Type: Fishing. MMSI: 22700000.

Date/timePositionNaut miles runAvg speedWind from/ knotsBaromVisibWave heightAir tempDewpointWater temp
2014-Sep-01 07:33N 46°03' W 002°43'35 0.8
2014-Aug-30 11:33N 46°27' W 002°05'9 8.7
2014-Aug-30 10:33N 46°28' W 001°53'4 4.1
2014-Aug-30 09:30N 46°30' W 001°47'0 0.2
2014-Aug-30 08:33N 46°30' W 001°47'0 0.1
2014-Aug-30 07:31N 46°30' W 001°47'0 0.0
2014-Aug-30 06:31N 46°30' W 001°47'0 0.0
2014-Aug-29 23:21N 46°30' W 001°47'0 0.0
2014-Aug-29 22:33N 46°30' W 001°47'0 0.0
2014-Aug-29 19:32N 46°30' W 001°47'0 0.1
2014-Aug-29 18:32N 46°30' W 001°47'4 3.8
2014-Aug-29 17:33N 46°27' W 001°50'9 8.6
2014-Aug-29 16:33N 46°22' W 002°00'  
2014-Aug-26 03:05N 43°54' W 001°59'4 8.2
2014-Aug-26 02:33N 43°50' W 001°57'8 7.9
2014-Aug-26 01:30N 43°42' W 001°52'8 8.1
2014-Aug-26 00:29N 43°35' W 001°47'11 8.4
2014-Aug-25 23:14N 43°25' W 001°41'  
Track history (hours):
 
Tides and Currents Weather Stations Pressure Air Temp Water Temp Dewpoint Dewpoint Depression Visibility Wind Speed Wind Dir Waves Ship Positions

F/V Eema 2

Last reported at 2014-Sep-01 07:33 UTC. Time now 2014-Sep-02 21:43 UTC.
Position N 46°03' W 002°43'.

Length 10 m.

Type: Fishing. MMSI: 22700000.

Date/timePositionNaut miles runAvg speedWind from/ knotsBaromVisibWave heightAir tempDewpointWater temp
2014-Sep-01 07:33N 46°03' W 002°43'35 0.8
2014-Aug-30 11:33N 46°27' W 002°05'9 8.7
2014-Aug-30 10:33N 46°28' W 001°53'4 4.1
2014-Aug-30 09:30N 46°30' W 001°47'0 0.2
2014-Aug-30 08:33N 46°30' W 001°47'0 0.1
2014-Aug-30 07:31N 46°30' W 001°47'0 0.0
2014-Aug-30 06:31N 46°30' W 001°47'0 0.0
2014-Aug-29 23:21N 46°30' W 001°47'0 0.0
2014-Aug-29 22:33N 46°30' W 001°47'0 0.0
2014-Aug-29 19:32N 46°30' W 001°47'0 0.1
2014-Aug-29 18:32N 46°30' W 001°47'4 3.8
2014-Aug-29 17:33N 46°27' W 001°50'9 8.6
2014-Aug-29 16:33N 46°22' W 002°00'  
2014-Aug-26 03:05N 43°54' W 001°59'4 8.2
2014-Aug-26 02:33N 43°50' W 001°57'8 7.9
2014-Aug-26 01:30N 43°42' W 001°52'8 8.1
2014-Aug-26 00:29N 43°35' W 001°47'11 8.4
2014-Aug-25 23:14N 43°25' W 001°41'  

Dump ship's entire track history